Aviation Digital Data Service (ADDS)

Output produced by METARs form (0458 UTC 20 October 2017)
found at http://aviationweather.gov/adds/metars/
 
KMFD 192335Z 2000/2024 VRB03KT P6SM SCT250 
     FM201600 18006KT P6SM SKC